Time;durP1;ratioP1;P1;durP2;ratioP2;P2;SDS_P1;SDS_P2;PMS_P1;PMS_P2;Temp;Humidity;BMP_temperature;BMP_pressure;BME280_temperature;BME280_humidity;BME280_pressure;Samples;Min_cycle;Max_cycle;Signal;HPM_P1;HPM_P2
2022/08/09 00:02:14;;;;;;;;;;;;;;;-144.99;100.00;61100.13;5059758;28;19932;-63
2022/08/09 00:04:40;;;;;;;;;;;;;;;-144.99;100.00;61100.13;5064794;28;20367;-64
2022/08/09 00:07:07;;;;;;;;;;;;;;;-144.99;100.00;61100.13;5064553;28;19982;-64
2022/08/09 00:09:33;;;;;;;;;;;;;;;-144.99;100.00;61100.13;5058731;28;19932;-65
2022/08/09 00:12:00;;;;;;;;;;;;;;;-144.99;100.00;61100.13;5058758;28;19924;-64
2022/08/09 00:14:26;;;;;;;;;;;;;;;-144.99;100.00;61100.13;5057206;28;19928;-65
2022/08/09 00:16:53;;;;;;;;;;;;;;;-144.99;100.00;61100.13;5063746;28;20392;-64
2022/08/09 00:19:21;;;;;;;;;;;;;;;-144.99;100.00;61100.13;5061748;28;20009;-63
2022/08/09 00:21:47;;;;;;;;;;;;;;;-144.99;100.00;61100.13;5059493;28;20424;-64
2022/08/09 00:24:14;;;;;;;;;;;;;;;-144.99;100.00;61100.13;5062855;28;19932;-64
2022/08/09 00:26:40;;;;;;;;;;;;;;;-144.99;100.00;61100.13;5059030;28;20039;-63
2022/08/09 00:29:07;;;;;;;;;;;;;;;-144.99;100.00;61100.13;5063179;28;19968;-63
2022/08/09 00:31:33;;;;;;;;;;;;;;;-144.99;100.00;61100.13;5055810;28;19932;-63
2022/08/09 00:34:00;;;;;;;;;;;;;;;-144.99;100.00;61100.13;5061441;28;19990;-64
2022/08/09 00:36:27;;;;;;;;;;;;;;;-144.99;100.00;61100.13;5053777;28;20027;-65
2022/08/09 00:38:54;;;;;;;;;;;;;;;-144.99;100.00;61100.13;5060787;28;19932;-64
2022/08/09 00:41:21;;;;;;;;;;;;;;;-144.99;100.00;61100.13;5059612;28;19928;-64
2022/08/09 00:43:48;;;;;;;;;;;;;;;-144.99;100.00;61100.13;5066503;28;20411;-64
2022/08/09 00:46:15;;;;;;;;;;;;;;;-144.99;100.00;61100.13;5058265;28;20420;-62
2022/08/09 00:48:41;;;;;;;;;;;;;;;-144.99;100.00;61100.13;5061843;28;19928;-62
2022/08/09 00:51:08;;;;;;;;;;;;;;;-144.99;100.00;61100.13;5065257;28;20005;-62
2022/08/09 00:53:37;;;;;;;;;;;;;;;-144.99;100.00;61100.13;5057627;28;19936;-62
2022/08/09 00:56:03;;;;;;;;;;;;;;;-144.99;100.00;61100.13;5064480;28;19932;-66
2022/08/09 00:58:33;;;;;;;;;;;;;;;-144.99;100.00;61100.13;5059454;28;20033;-64
2022/08/09 01:01:00;;;;;;;;;;;;;;;-144.99;100.00;61100.13;5061955;28;19933;-66
2022/08/09 01:03:31;;;;;;;;;;;;;;;-144.99;100.00;61100.13;5059934;28;20297;-65
2022/08/09 01:06:03;;;;;;;;;;;;;;;-144.99;100.00;61100.13;5057526;28;19978;-65
2022/08/09 01:08:39;;;;;;;;;;;;;;;-144.99;100.00;61100.13;5054535;28;20359;-65
2022/08/09 01:11:14;;;;;;;;;;;;;;;-144.99;100.00;61100.13;5052552;28;19936;-65
2022/08/09 01:13:45;;;;;;;;;;;;;;;-144.99;100.00;61100.13;5057650;28;20007;-64
2022/08/09 01:16:12;;;;;;;;;;;;;;;-144.99;100.00;61100.13;5062789;28;20404;-65
2022/08/09 01:18:42;;;;;;;;;;;;;;;-144.99;100.00;61100.13;5057861;28;19932;-63
2022/08/09 01:21:17;;;;;;;;;;;;;;;-144.99;100.00;61100.13;5059669;28;19932;-65
2022/08/09 01:23:51;;;;;;;;;;;;;;;-144.99;100.00;61100.13;5061686;28;20216;-65
2022/08/09 01:26:24;;;;;;;;;;;;;;;-144.99;100.00;61100.13;5057762;28;20149;-66
2022/08/09 01:28:53;;;;;;;;;;;;;;;-144.99;100.00;61100.13;5065558;28;19933;-68
2022/08/09 01:31:22;;;;;;;;;;;;;;;-144.99;100.00;61100.13;5058621;28;20002;-69
2022/08/09 01:33:50;;;;;;;;;;;;;;;-144.99;100.00;61100.13;5065299;28;20019;-68
2022/08/09 01:36:19;;;;;;;;;;;;;;;-144.99;100.00;61100.13;5058195;28;19989;-68
2022/08/09 01:38:47;;;;;;;;;;;;;;;-144.99;100.00;61100.13;4710492;28;9999938;-68
2022/08/09 01:41:15;;;;;;;;;;;;;;;-144.99;100.00;61100.13;5059942;28;19928;-68
2022/08/09 01:43:43;;;;;;;;;;;;;;;-144.99;100.00;61100.13;5062437;28;19924;-68
2022/08/09 01:46:12;;;;;;;;;;;;;;;-144.99;100.00;61100.13;5059713;28;19981;-63
2022/08/09 01:48:39;;;;;;;;;;;;;;;-144.99;100.00;61100.13;5062584;28;19928;-62
2022/08/09 01:51:06;;;;;;;;;;;;;;;-144.99;100.00;61100.13;5058429;28;19932;-64
2022/08/09 01:53:33;;;;;;;;;;;;;;;-144.99;100.00;61100.13;5063789;28;19924;-64
2022/08/09 01:56:01;;;;;;;;;;;;;;;-144.99;100.00;61100.13;5063208;28;19929;-63
2022/08/09 01:58:28;;;;;;;;;;;;;;;-144.99;100.00;61100.13;5069483;28;19978;-64
2022/08/09 02:00:56;;;;;;;;;;;;;;;-144.99;100.00;61100.13;5061899;28;19924;-63
2022/08/09 02:03:24;;;;;;;;;;;;;;;-144.99;100.00;61100.13;5063301;28;19978;-65
2022/08/09 02:05:54;;;;;;;;;;;;;;;-144.99;100.00;61100.13;5059368;28;20389;-64
2022/08/09 02:08:21;;;;;;;;;;;;;;;-144.99;100.00;61100.13;5061002;28;19929;-66
2022/08/09 02:10:49;;;;;;;;;;;;;;;-144.99;100.00;61100.13;5060559;28;19924;-64
2022/08/09 02:13:16;;;;;;;;;;;;;;;-144.99;100.00;61100.13;5062140;28;19946;-65
2022/08/09 02:15:44;;;;;;;;;;;;;;;-144.99;100.00;61100.13;5058321;28;19925;-63
2022/08/09 02:18:10;;;;;;;;;;;;;;;-144.99;100.00;61100.13;5062154;28;19989;-65
2022/08/09 02:20:39;;;;;;;;;;;;;;;-144.99;100.00;61100.13;5049621;28;20028;-64
2022/08/09 02:23:08;;;;;;;;;;;;;;;-144.99;100.00;61100.13;5057448;28;20334;-64
2022/08/09 02:25:36;;;;;;;;;;;;;;;-144.99;100.00;61100.13;5060930;28;20393;-62
2022/08/09 02:28:07;;;;;;;;;;;;;;;-144.99;100.00;61100.13;5058006;28;20266;-62
2022/08/09 02:30:35;;;;;;;;;;;;;;;-144.99;100.00;61100.13;5062875;28;19978;-61
2022/08/09 02:33:03;;;;;;;;;;;;;;;-144.99;100.00;61100.13;5066247;28;19985;-63
2022/08/09 02:35:34;;;;;;;;;;;;;;;-144.99;100.00;61100.13;5057586;28;19928;-62
2022/08/09 02:38:03;;;;;;;;;;;;;;;-144.99;100.00;61100.13;5061883;28;20341;-61
2022/08/09 02:40:30;;;;;;;;;;;;;;;-144.99;100.00;61100.13;5063513;28;19929;-60
2022/08/09 02:42:59;;;;;;;;;;;;;;;-144.99;100.00;61100.13;5062896;28;20611;-60
2022/08/09 02:45:29;;;;;;;;;;;;;;;-144.99;100.00;61100.13;5061628;28;19986;-60
2022/08/09 02:47:58;;;;;;;;;;;;;;;-144.99;100.00;61100.13;5064057;28;20376;-62
2022/08/09 02:50:27;;;;;;;;;;;;;;;-144.99;100.00;61100.13;5060237;28;19986;-61
2022/08/09 02:52:55;;;;;;;;;;;;;;;-144.99;100.00;61100.13;5059442;28;20397;-61
2022/08/09 02:55:24;;;;;;;;;;;;;;;-144.99;100.00;61100.13;5061151;28;20032;-62
2022/08/09 02:57:52;;;;;;;;;;;;;;;-144.99;100.00;61100.13;5061797;28;19931;-62
2022/08/09 03:00:18;;;;;;;;;;;;;;;-144.99;100.00;61100.13;5061855;28;20019;-62
2022/08/09 03:02:47;;;;;;;;;;;;;;;-144.99;100.00;61100.13;5060241;28;20051;-62
2022/08/09 03:05:15;;;;;;;;;;;;;;;-144.99;100.00;61100.13;5061279;28;19928;-60
2022/08/09 03:07:42;;;;;;;;;;;;;;;-144.99;100.00;61100.13;5060801;28;19978;-61
2022/08/09 03:10:09;;;;;;;;;;;;;;;-144.99;100.00;61100.13;5062291;28;20014;-65
2022/08/09 03:12:38;;;;;;;;;;;;;;;-144.99;100.00;61100.13;5059040;28;19932;-61
2022/08/09 03:15:06;;;;;;;;;;;;;;;-144.99;100.00;61100.13;5057955;28;19975;-62
2022/08/09 03:17:35;;;;;;;;;;;;;;;-144.99;100.00;61100.13;5064710;28;19924;-63
2022/08/09 03:20:02;;;;;;;;;;;;;;;-144.99;100.00;61100.13;5062656;28;20393;-63
2022/08/09 03:22:30;;;;;;;;;;;;;;;-144.99;100.00;61100.13;5062070;28;20500;-64
2022/08/09 03:24:56;;;;;;;;;;;;;;;-144.99;100.00;61100.13;5064221;28;20299;-62
2022/08/09 03:27:24;;;;;;;;;;;;;;;-144.99;100.00;61100.13;5063983;28;20368;-63
2022/08/09 03:29:52;;;;;;;;;;;;;;;-144.99;100.00;61100.13;5065487;28;19924;-63
2022/08/09 03:32:19;;;;;;;;;;;;;;;-144.99;100.00;61100.13;5059488;28;20393;-65
2022/08/09 03:34:46;;;;;;;;;;;;;;;-144.99;100.00;61100.13;5063485;28;19924;-61
2022/08/09 03:37:13;;;;;;;;;;;;;;;-144.99;100.00;61100.13;5061555;28;20007;-62
2022/08/09 03:39:39;;;;;;;;;;;;;;;-144.99;100.00;61100.13;5064984;28;19924;-60
2022/08/09 03:42:06;;;;;;;;;;;;;;;-144.99;100.00;61100.13;5066186;28;19924;-60
2022/08/09 03:44:32;;;;;;;;;;;;;;;-144.99;100.00;61100.13;5064057;28;21646;-60
2022/08/09 03:47:00;;;;;;;;;;;;;;;-144.99;100.00;61100.13;5064943;28;20290;-60
2022/08/09 03:49:27;;;;;;;;;;;;;;;-144.99;100.00;61100.13;5063299;28;19925;-62
2022/08/09 03:51:56;;;;;;;;;;;;;;;-144.99;100.00;61100.13;5064257;28;19990;-61
2022/08/09 03:54:23;;;;;;;;;;;;;;;-144.99;100.00;61100.13;5067205;28;20239;-63
2022/08/09 03:56:50;;;;;;;;;;;;;;;-144.99;100.00;61100.13;5067554;28;20320;-62
2022/08/09 03:59:16;;;;;;;;;;;;;;;-144.99;100.00;61100.13;5065134;28;20304;-60
2022/08/09 04:01:44;;;;;;;;;;;;;;;-144.99;100.00;61100.13;5063830;28;20570;-63
2022/08/09 04:04:12;;;;;;;;;;;;;;;-144.99;100.00;61100.13;5067710;28;20039;-66
2022/08/09 04:06:39;;;;;;;;;;;;;;;-144.99;100.00;61100.13;5087858;22;19950;-64
2022/08/09 04:09:06;;;;;;;;;;;;;;;-144.99;100.00;61100.13;5078601;28;20348;-64
2022/08/09 04:11:41;;;;;;;;;;;;;;;-144.99;100.00;61100.13;5066064;28;20403;-65
2022/08/09 04:14:08;;;;;;;;;;;;;;;-144.99;100.00;61100.13;5065835;28;20718;-66
2022/08/09 04:16:34;;;;;;;;;;;;;;;-144.99;100.00;61100.13;5066448;28;20020;-66
2022/08/09 04:19:01;;;;;;;;;;;;;;;-144.99;100.00;61100.13;5067710;28;19935;-65
2022/08/09 04:21:28;;;;;;;;;;;;;;;-144.99;100.00;61100.13;5062069;28;19924;-67
2022/08/09 04:23:55;;;;;;;;;;;;;;;-144.99;100.00;61100.13;5064197;28;20020;-64
2022/08/09 04:26:21;;;;;;;;;;;;;;;-144.99;100.00;61100.13;5064274;28;19947;-65
2022/08/09 04:28:48;;;;;;;;;;;;;;;-144.99;100.00;61100.13;5065688;28;20654;-64
2022/08/09 04:31:14;;;;;;;;;;;;;;;-144.99;100.00;61100.13;5066922;28;20351;-64
2022/08/09 04:33:41;;;;;;;;;;;;;;;-144.99;100.00;61100.13;5063594;28;19943;-64
2022/08/09 04:36:08;;;;;;;;;;;;;;;-144.99;100.00;61100.13;5064877;28;20030;-64
2022/08/09 04:38:35;;;;;;;;;;;;;;;-144.99;100.00;61100.13;5065263;28;19947;-64
2022/08/09 04:41:02;;;;;;;;;;;;;;;-144.99;100.00;61100.13;5064018;28;20019;-64
2022/08/09 04:43:28;;;;;;;;;;;;;;;-144.99;100.00;61100.13;5065373;28;20027;-64
2022/08/09 04:45:55;;;;;;;;;;;;;;;-144.99;100.00;61100.13;5066107;28;20335;-64
2022/08/09 04:48:21;;;;;;;;;;;;;;;-144.99;100.00;61100.13;5064851;28;19932;-65
2022/08/09 04:50:48;;;;;;;;;;;;;;;-144.99;100.00;61100.13;5067978;28;19990;-65
2022/08/09 04:53:14;;;;;;;;;;;;;;;-144.99;100.00;61100.13;5066199;28;20016;-66
2022/08/09 04:55:42;;;;;;;;;;;;;;;-144.99;100.00;61100.13;5065245;28;19935;-64
2022/08/09 04:58:08;;;;;;;;;;;;;;;-144.99;100.00;61100.13;5065845;28;19937;-65
2022/08/09 05:00:35;;;;;;;;;;;;;;;-144.99;100.00;61100.13;5062693;28;19935;-65
2022/08/09 05:03:02;;;;;;;;;;;;;;;-144.99;100.00;61100.13;5063909;28;19942;-65
2022/08/09 05:05:28;;;;;;;;;;;;;;;-144.99;100.00;61100.13;5063110;28;19932;-66
2022/08/09 05:07:55;;;;;;;;;;;;;;;-144.99;100.00;61100.13;5066073;28;20008;-71
2022/08/09 05:10:21;;;;;;;;;;;;;;;-144.99;100.00;61100.13;5066153;28;21391;-71
2022/08/09 05:12:49;;;;;;;;;;;;;;;-144.99;100.00;61100.13;5061915;28;20016;-72
2022/08/09 05:15:16;;;;;;;;;;;;;;;-144.99;100.00;61100.13;5062491;28;20023;-72
2022/08/09 05:17:42;;;;;;;;;;;;;;;-144.99;100.00;61100.13;5065878;28;20003;-72
2022/08/09 05:20:09;;;;;;;;;;;;;;;-144.99;100.00;61100.13;4714670;28;10000211;-71
2022/08/09 05:22:36;;;;;;;;;;;;;;;-144.99;100.00;61100.13;5057886;28;19939;-71
2022/08/09 05:25:02;;;;;;;;;;;;;;;-144.99;100.00;61100.13;5058624;28;19975;-71
2022/08/09 05:27:29;;;;;;;;;;;;;;;-144.99;100.00;61100.13;5057209;28;19935;-71
2022/08/09 05:29:57;;;;;;;;;;;;;;;-144.99;100.00;61100.13;5060929;28;20346;-71
2022/08/09 05:32:23;;;;;;;;;;;;;;;-144.99;100.00;61100.13;5060147;28;20032;-69
2022/08/09 05:34:50;;;;;;;;;;;;;;;-144.99;100.00;61100.13;5067505;28;20100;-69
2022/08/09 05:37:17;;;;;;;;;;;;;;;-144.99;100.00;61100.13;5061992;28;19993;-69
2022/08/09 05:39:43;;;;;;;;;;;;;;;-144.99;100.00;61100.13;5061519;28;19935;-69
2022/08/09 05:42:09;;;;;;;;;;;;;;;-144.99;100.00;61100.13;5067431;28;19936;-69
2022/08/09 05:44:36;;;;;;;;;;;;;;;-144.99;100.00;61100.13;5068010;28;19967;-69
2022/08/09 05:47:04;;;;;;;;;;;;;;;-144.99;100.00;61100.13;5067131;28;20392;-69
2022/08/09 05:49:30;;;;;;;;;;;;;;;-144.99;100.00;61100.13;5059125;28;20403;-69
2022/08/09 05:51:57;;;;;;;;;;;;;;;-144.99;100.00;61100.13;5054006;28;19944;-69
2022/08/09 05:54:23;;;;;;;;;;;;;;;-144.99;100.00;61100.13;5062966;28;19928;-69
2022/08/09 05:56:50;;;;;;;;;;;;;;;-144.99;100.00;61100.13;5067894;28;20018;-69
2022/08/09 05:59:18;;;;;;;;;;;;;;;-144.99;100.00;61100.13;5065558;28;20018;-69
2022/08/09 06:01:44;;;;;;;;;;;;;;;-144.99;100.00;61100.13;5059709;28;19924;-70
2022/08/09 06:04:12;;;;;;;;;;;;;;;-144.99;100.00;61100.13;5067425;28;20015;-70
2022/08/09 06:06:38;;;;;;;;;;;;;;;-144.99;100.00;61100.13;5067868;28;20380;-70
2022/08/09 06:09:05;;;;;;;;;;;;;;;-144.99;100.00;61100.13;5065161;28;20410;-70
2022/08/09 06:11:32;;;;;;;;;;;;;;;-144.99;100.00;61100.13;5058460;28;19963;-70
2022/08/09 06:13:59;;;;;;;;;;;;;;;-144.99;100.00;61100.13;5067280;28;19974;-70
2022/08/09 06:16:25;;;;;;;;;;;;;;;-144.99;100.00;61100.13;5066356;28;19932;-70
2022/08/09 06:18:52;;;;;;;;;;;;;;;-144.99;100.00;61100.13;5067755;28;20155;-68
2022/08/09 06:21:19;;;;;;;;;;;;;;;-144.99;100.00;61100.13;5062410;28;20424;-68
2022/08/09 06:23:47;;;;;;;;;;;;;;;-144.99;100.00;61100.13;5060288;28;20020;-68
2022/08/09 06:26:13;;;;;;;;;;;;;;;-144.99;100.00;61100.13;5062941;28;19929;-68
2022/08/09 06:28:40;;;;;;;;;;;;;;;-144.99;100.00;61100.13;5062216;28;20022;-68
2022/08/09 06:31:06;;;;;;;;;;;;;;;-144.99;100.00;61100.13;5059898;28;19939;-71
2022/08/09 06:33:33;;;;;;;;;;;;;;;-144.99;100.00;61100.13;5058545;28;20015;-70
2022/08/09 06:35:59;;;;;;;;;;;;;;;-144.99;100.00;61100.13;5049951;28;19991;-68
2022/08/09 06:38:27;;;;;;;;;;;;;;;-144.99;100.00;61100.13;5055713;28;20013;-70
2022/08/09 06:40:53;;;;;;;;;;;;;;;-144.99;100.00;61100.13;5063103;28;20737;-70
2022/08/09 06:43:20;;;;;;;;;;;;;;;-144.99;100.00;61100.13;5063186;28;19925;-70
2022/08/09 06:45:47;;;;;;;;;;;;;;;-144.99;100.00;61100.13;5050524;28;20097;-70
2022/08/09 06:48:13;;;;;;;;;;;;;;;-144.99;100.00;61100.13;5058617;28;19924;-70
2022/08/09 06:50:40;;;;;;;;;;;;;;;-144.99;100.00;61100.13;5063941;28;20051;-70
2022/08/09 06:53:06;;;;;;;;;;;;;;;-144.99;100.00;61100.13;5063727;28;20329;-70
2022/08/09 06:55:34;;;;;;;;;;;;;;;-144.99;100.00;61100.13;5064711;28;19929;-70
2022/08/09 06:58:00;;;;;;;;;;;;;;;-144.99;100.00;61100.13;5067285;28;20169;-70
2022/08/09 07:00:28;;;;;;;;;;;;;;;-144.99;100.00;61100.13;5066433;28;20023;-70
2022/08/09 07:02:54;;;;;;;;;;;;;;;-144.99;100.00;61100.13;5065470;28;19970;-70
2022/08/09 07:05:21;;;;;;;;;;;;;;;-144.99;100.00;61100.13;5055475;28;19934;-70
2022/08/09 07:07:47;;;;;;;;;;;;;;;-144.99;100.00;61100.13;5064186;28;20240;-70
2022/08/09 07:10:14;;;;;;;;;;;;;;;-144.99;100.00;61100.13;5066878;28;19928;-70
2022/08/09 07:12:41;;;;;;;;;;;;;;;-144.99;100.00;61100.13;5063759;28;19936;-70
2022/08/09 07:15:08;;;;;;;;;;;;;;;-144.99;100.00;61100.13;5060185;28;19935;-70
2022/08/09 07:17:35;;;;;;;;;;;;;;;-144.99;100.00;61100.13;5047927;28;19968;-69
2022/08/09 07:20:01;;;;;;;;;;;;;;;-144.99;100.00;61100.13;5068039;28;19936;-70
2022/08/09 07:22:28;;;;;;;;;;;;;;;-144.99;100.00;61100.13;5065927;28;19928;-70
2022/08/09 07:24:54;;;;;;;;;;;;;;;-144.99;100.00;61100.13;5056933;28;20413;-70
2022/08/09 07:27:20;;;;;;;;;;;;;;;-144.99;100.00;61100.13;5054233;28;19939;-70
2022/08/09 07:29:48;;;;;;;;;;;;;;;-144.99;100.00;61100.13;5062239;28;20035;-70
2022/08/09 07:32:15;;;;;;;;;;;;;;;-144.99;100.00;61100.13;5057781;28;20037;-70
2022/08/09 07:34:41;;;;;;;;;;;;;;;-144.99;100.00;61100.13;5045786;28;19979;-70
2022/08/09 07:37:07;;;;;;;;;;;;;;;-144.99;100.00;61100.13;5059081;28;19967;-68
2022/08/09 07:39:34;;;;;;;;;;;;;;;-144.99;100.00;61100.13;5065815;28;20026;-71
2022/08/09 07:42:01;;;;;;;;;;;;;;;-144.99;100.00;61100.13;5055883;28;19929;-70
2022/08/09 07:44:27;;;;;;;;;;;;;;;-144.99;100.00;61100.13;5058236;28;19971;-70
2022/08/09 07:46:55;;;;;;;;;;;;;;;-144.99;100.00;61100.13;5063902;28;19958;-70
2022/08/09 07:49:21;;;;;;;;;;;;;;;-144.99;100.00;61100.13;5062028;28;19939;-70
2022/08/09 07:51:48;;;;;;;;;;;;;;;-144.99;100.00;61100.13;5060931;28;19983;-71
2022/08/09 07:54:15;;;;;;;;;;;;;;;-144.99;100.00;61100.13;5052868;28;19932;-69
2022/08/09 07:56:42;;;;;;;;;;;;;;;-144.99;100.00;61100.13;5059410;28;19928;-68
2022/08/09 07:59:08;;;;;;;;;;;;;;;-144.99;100.00;61100.13;5058228;28;20023;-68
2022/08/09 08:01:35;;;;;;;;;;;;;;;-144.99;100.00;61100.13;5064905;28;20436;-67
2022/08/09 08:04:03;;;;;;;;;;;;;;;-144.99;100.00;61100.13;5053930;28;19951;-68
2022/08/09 08:06:29;;;;;;;;;;;;;;;-144.99;100.00;61100.13;5061208;28;19928;-68
2022/08/09 08:08:56;;;;;;;;;;;;;;;-144.99;100.00;61100.13;5059783;28;19924;-68
2022/08/09 08:11:22;;;;;;;;;;;;;;;-144.99;100.00;61100.13;5061500;28;20049;-68
2022/08/09 08:13:49;;;;;;;;;;;;;;;-144.99;100.00;61100.13;5065033;28;19932;-69
2022/08/09 08:16:16;;;;;;;;;;;;;;;-144.99;100.00;61100.13;5067462;28;20364;-68
2022/08/09 08:18:42;;;;;;;;;;;;;;;-144.99;100.00;61100.13;5066029;28;19931;-69
2022/08/09 08:21:10;;;;;;;;;;;;;;;-144.99;100.00;61100.13;5065236;28;19931;-69
2022/08/09 08:23:36;;;;;;;;;;;;;;;-144.99;100.00;61100.13;5067965;28;19939;-69
2022/08/09 08:26:03;;;;;;;;;;;;;;;-144.99;100.00;61100.13;5069121;28;19936;-68
2022/08/09 08:28:29;;;;;;;;;;;;;;;-144.99;100.00;61100.13;5057523;28;19928;-69
2022/08/09 08:30:55;;;;;;;;;;;;;;;-144.99;100.00;61100.13;5055999;28;19924;-68
2022/08/09 08:33:22;;;;;;;;;;;;;;;-144.99;100.00;61100.13;5064656;28;19934;-69
2022/08/09 08:35:48;;;;;;;;;;;;;;;-144.99;100.00;61100.13;5053164;28;20448;-69
2022/08/09 08:38:16;;;;;;;;;;;;;;;-144.99;100.00;61100.13;5056822;28;20357;-69
2022/08/09 08:40:43;;;;;;;;;;;;;;;-144.99;100.00;61100.13;5063144;28;19934;-69
2022/08/09 08:43:09;;;;;;;;;;;;;;;-144.99;100.00;61100.13;5057860;28;20239;-69
2022/08/09 08:45:42;;;;;;;;;;;;;;;-144.99;100.00;61100.13;5058514;28;19925;-68
2022/08/09 08:48:09;;;;;;;;;;;;;;;-144.99;100.00;61100.13;5068096;28;19924;-69
2022/08/09 08:50:35;;;;;;;;;;;;;;;-144.99;100.00;61100.13;5065656;28;19929;-68
2022/08/09 08:53:02;;;;;;;;;;;;;;;-144.99;100.00;61100.13;5059266;28;20039;-68
2022/08/09 08:55:30;;;;;;;;;;;;;;;-144.99;100.00;61100.13;5068613;28;20184;-68
2022/08/09 08:57:56;;;;;;;;;;;;;;;-144.99;100.00;61100.13;5051935;28;19940;-68
2022/08/09 09:00:22;;;;;;;;;;;;;;;-144.99;100.00;61100.13;5058109;28;19929;-69
2022/08/09 09:02:49;;;;;;;;;;;;;;;-144.99;100.00;61100.13;5055289;28;19925;-69
2022/08/09 09:05:19;;;;;;;;;;;;;;;-144.99;100.00;61100.13;5060993;28;20046;-68
2022/08/09 09:07:49;;;;;;;;;;;;;;;-144.99;100.00;61100.13;5061543;28;19935;-68
2022/08/09 09:10:15;;;;;;;;;;;;;;;-144.99;100.00;61100.13;5054346;28;20012;-67
2022/08/09 09:12:44;;;;;;;;;;;;;;;-144.99;100.00;61100.13;5049194;28;20042;-68
2022/08/09 09:15:11;;;;;;;;;;;;;;;-144.99;100.00;61100.13;5068006;28;19928;-68
2022/08/09 09:17:37;;;;;;;;;;;;;;;-144.99;100.00;61100.13;5062242;28;19939;-69
2022/08/09 09:20:06;;;;;;;;;;;;;;;-144.99;100.00;61100.13;5059049;28;19928;-69
2022/08/09 09:22:48;;;;;;;;;;;;;;;-144.99;100.00;61100.13;5057553;28;20047;-69
2022/08/09 09:25:29;;;;;;;;;;;;;;;-144.99;100.00;61100.13;5067256;28;20011;-69
2022/08/09 09:27:57;;;;;;;;;;;;;;;-144.99;100.00;61100.13;5058503;28;19985;-70
2022/08/09 09:30:27;;;;;;;;;;;;;;;-144.99;100.00;61100.13;5064126;28;19928;-69
2022/08/09 09:33:03;;;;;;;;;;;;;;;-144.99;100.00;61100.13;5057067;28;20040;-69
2022/08/09 09:35:30;;;;;;;;;;;;;;;-144.99;100.00;61100.13;5066652;28;20393;-69
2022/08/09 09:37:56;;;;;;;;;;;;;;;-144.99;100.00;61100.13;5060049;28;19929;-69
2022/08/09 09:40:40;;;;;;;;;;;;;;;-144.99;100.00;61100.13;5066229;28;20363;-69
2022/08/09 09:43:08;;;;;;;;;;;;;;;-144.99;100.00;61100.13;5065498;28;20023;-69
2022/08/09 09:45:46;;;;;;;;;;;;;;;-144.99;100.00;61100.13;5067022;28;19981;-70
2022/08/09 09:48:12;;;;;;;;;;;;;;;-144.99;100.00;61100.13;5066941;28;19955;-69
2022/08/09 09:50:40;;;;;;;;;;;;;;;-144.99;100.00;61100.13;5062004;28;20019;-69
2022/08/09 09:53:13;;;;;;;;;;;;;;;-144.99;100.00;61100.13;5063024;28;19928;-69
2022/08/09 09:55:50;;;;;;;;;;;;;;;-144.99;100.00;61100.13;5066882;28;19955;-69
2022/08/09 09:58:18;;;;;;;;;;;;;;;-144.99;100.00;61100.13;5048422;28;20008;-66
2022/08/09 10:00:45;;;;;;;;;;;;;;;-144.99;100.00;61100.13;5061273;28;20019;-68
2022/08/09 10:03:11;;;;;;;;;;;;;;;-144.99;100.00;61100.13;5061316;28;20304;-68
2022/08/09 10:05:56;;;;;;;;;;;;;;;-144.99;100.00;61100.13;5065822;28;20358;-68
2022/08/09 10:08:23;;;;;;;;;;;;;;;-144.99;100.00;61100.13;5073793;22;19929;-73
2022/08/09 10:10:49;;;;;;;;;;;;;;;-144.99;100.00;61100.13;5041157;28;19929;-72
2022/08/09 10:13:16;;;;;;;;;;;;;;;-144.99;100.00;61100.13;5049690;28;20499;-73
2022/08/09 10:15:48;;;;;;;;;;;;;;;-144.99;100.00;61100.13;5046988;28;19925;-73
2022/08/09 10:18:15;;;;;;;;;;;;;;;-144.99;100.00;61100.13;5053461;28;20035;-71
2022/08/09 10:20:42;;;;;;;;;;;;;;;-144.99;100.00;61100.13;5049925;28;20016;-71
2022/08/09 10:23:16;;;;;;;;;;;;;;;-144.99;100.00;61100.13;5048817;28;20569;-72
2022/08/09 10:25:44;;;;;;;;;;;;;;;-144.99;100.00;61100.13;5046582;28;20028;-73
2022/08/09 10:28:10;;;;;;;;;;;;;;;-144.99;100.00;61100.13;5053648;28;20367;-72
2022/08/09 10:30:37;;;;;;;;;;;;;;;-144.99;100.00;61100.13;5042375;28;19928;-72
2022/08/09 10:33:05;;;;;;;;;;;;;;;-144.99;100.00;61100.13;5039149;28;20020;-72
2022/08/09 10:35:32;;;;;;;;;;;;;;;-144.99;100.00;61100.13;5047467;28;20336;-73
2022/08/09 10:37:59;;;;;;;;;;;;;;;-144.99;100.00;61100.13;5061696;28;19929;-71
2022/08/09 10:40:26;;;;;;;;;;;;;;;-144.99;100.00;61100.13;5049266;28;19933;-73
2022/08/09 10:42:52;;;;;;;;;;;;;;;-144.99;100.00;61100.13;5051976;28;19972;-72
2022/08/09 10:45:20;;;;;;;;;;;;;;;-144.99;100.00;61100.13;5048464;28;20008;-71
2022/08/09 10:47:56;;;;;;;;;;;;;;;-144.99;100.00;61100.13;5060964;28;20400;-71
2022/08/09 10:50:27;;;;;;;;;;;;;;;-144.99;100.00;61100.13;5045251;28;19933;-72
2022/08/09 10:53:03;;;;;;;;;;;;;;;-144.99;100.00;61100.13;5047269;28;20090;-72
2022/08/09 10:55:31;;;;;;;;;;;;;;;-144.99;100.00;61100.13;5056126;28;19928;-73
2022/08/09 10:57:57;;;;;;;;;;;;;;;-144.99;100.00;61100.13;5052972;28;20301;-71
2022/08/09 11:00:40;;;;;;;;;;;;;;;-144.99;100.00;61100.13;5048633;28;19984;-71
2022/08/09 11:03:21;;;;;;;;;;;;;;;-144.99;100.00;61100.13;5046232;28;19929;-72
2022/08/09 11:06:15;;;;;;;;;;;;;;;-144.99;100.00;61100.13;5046443;28;20393;-73
2022/08/09 11:08:44;;;;;;;;;;;;;;;-144.99;100.00;61100.13;5049298;28;19937;-71
2022/08/09 11:11:10;;;;;;;;;;;;;;;-144.99;100.00;61100.13;5047317;28;19925;-72
2022/08/09 11:13:37;;;;;;;;;;;;;;;-144.99;100.00;61100.13;5046531;28;20358;-71
2022/08/09 11:16:18;;;;;;;;;;;;;;;-144.99;100.00;61100.13;5046166;28;20347;-72
2022/08/09 11:18:45;;;;;;;;;;;;;;;-144.99;100.00;61100.13;5046991;28;20359;-71
2022/08/09 11:21:26;;;;;;;;;;;;;;;-144.99;100.00;61100.13;5048811;28;19928;-72
2022/08/09 11:24:01;;;;;;;;;;;;;;;-144.99;100.00;61100.13;5044633;28;19925;-72
2022/08/09 11:26:49;;;;;;;;;;;;;;;-144.99;100.00;61100.13;5041067;28;19964;-71
2022/08/09 11:29:34;;;;;;;;;;;;;;;-144.99;100.00;61100.13;5033184;28;19933;-72
2022/08/09 11:32:01;;;;;;;;;;;;;;;-144.99;100.00;61100.13;5050090;28;20393;-71
2022/08/09 11:34:32;;;;;;;;;;;;;;;-144.99;100.00;61100.13;5042884;28;19947;-71
2022/08/09 11:37:00;;;;;;;;;;;;;;;-144.99;100.00;61100.13;5046860;28;20411;-72
2022/08/09 11:39:27;;;;;;;;;;;;;;;-144.99;100.00;61100.13;5049493;28;19994;-72
2022/08/09 11:41:54;;;;;;;;;;;;;;;-144.99;100.00;61100.13;5048819;28;19989;-71
2022/08/09 11:44:20;;;;;;;;;;;;;;;-144.99;100.00;61100.13;5059934;28;19928;-71
2022/08/09 11:46:51;;;;;;;;;;;;;;;-144.99;100.00;61100.13;5046636;28;19929;-72
2022/08/09 11:49:17;;;;;;;;;;;;;;;-144.99;100.00;61100.13;5054201;28;19928;-71
2022/08/09 11:51:59;;;;;;;;;;;;;;;-144.99;100.00;61100.13;5048058;28;20358;-72
2022/08/09 11:54:25;;;;;;;;;;;;;;;-144.99;100.00;61100.13;5047150;28;20049;-71
2022/08/09 11:56:53;;;;;;;;;;;;;;;-144.99;100.00;61100.13;5051333;28;20027;-72
2022/08/09 11:59:26;;;;;;;;;;;;;;;-144.99;100.00;61100.13;5051573;28;19940;-72
2022/08/09 12:01:53;;;;;;;;;;;;;;;-144.99;100.00;61100.13;5040035;28;19928;-72
2022/08/09 12:04:19;;;;;;;;;;;;;;;-144.99;100.00;61100.13;5052345;28;20297;-72
2022/08/09 12:06:49;;;;;;;;;;;;;;;-144.99;100.00;61100.13;5058316;28;19933;-70
2022/08/09 12:09:16;;;;;;;;;;;;;;;-144.99;100.00;61100.13;5063017;28;20376;-71
2022/08/09 12:11:42;;;;;;;;;;;;;;;-144.99;100.00;61100.13;5051473;28;19929;-72
2022/08/09 12:14:10;;;;;;;;;;;;;;;-144.99;100.00;61100.13;5050454;28;19928;-72
2022/08/09 12:16:38;;;;;;;;;;;;;;;-144.99;100.00;61100.13;5055187;28;19928;-72
2022/08/09 12:19:06;;;;;;;;;;;;;;;-144.99;100.00;61100.13;5050695;28;20415;-72
2022/08/09 12:21:34;;;;;;;;;;;;;;;-144.99;100.00;61100.13;5057530;28;20009;-72
2022/08/09 12:24:01;;;;;;;;;;;;;;;-144.99;100.00;61100.13;5055218;28;19924;-71